Time;durP1;ratioP1;P1;durP2;ratioP2;P2;SDS_P1;SDS_P2;PMS_P1;PMS_P2;Temp;Humidity;BMP_temperature;BMP_pressure;BME280_temperature;BME280_humidity;BME280_pressure;Samples;Min_cycle;Max_cycle;Signal;HPM_P1;HPM_P2
2022/06/24 00:01:19;;;;;;;4.50;3.73;;;;;;;21.24;49.47;99549.31;5094235;28;20574;-60
2022/06/24 00:03:47;;;;;;;4.03;3.50;;;;;;;21.16;50.11;99546.91;5092756;28;20528;-60
2022/06/24 00:06:15;;;;;;;5.17;3.97;;;;;;;21.10;49.45;99545.09;5101671;28;20471;-60
2022/06/24 00:08:50;;;;;;;5.80;3.50;;;;;;;21.03;49.81;99545.19;5103513;28;20584;-60
2022/06/24 00:11:16;;;;;;;4.50;3.40;;;;;;;20.97;50.94;99533.34;5102783;28;20499;-60
2022/06/24 00:13:45;;;;;;;4.70;4.20;;;;;;;20.92;52.26;99533.19;5103144;28;20465;-60
2022/06/24 00:16:11;;;;;;;5.30;4.00;;;;;;;20.87;52.67;99530.31;5094909;28;20500;-61
2022/06/24 00:18:38;;;;;;;5.53;4.40;;;;;;;20.83;54.03;99531.78;5102372;28;20897;-61
2022/06/24 00:21:12;;;;;;;7.30;4.20;;;;;;;20.78;55.84;99524.34;5102211;28;20467;-60
2022/06/24 00:23:39;;;;;;;4.50;4.10;;;;;;;20.79;55.26;99525.16;5090298;28;20511;-60
2022/06/24 00:26:06;;;;;;;5.13;4.13;;;;;;;20.78;54.79;99521.63;5091359;27;20463;-60
2022/06/24 00:28:32;;;;;;;5.00;4.33;;;;;;;20.77;54.39;99516.41;5103214;28;20451;-60
2022/06/24 00:31:04;;;;;;;8.10;4.20;;;;;;;20.71;54.03;99517.31;5091733;28;20479;-60
2022/06/24 00:33:34;;;;;;;4.47;4.07;;;;;;;20.67;54.73;99514.22;5102833;28;20457;-60
2022/06/24 00:36:01;;;;;;;4.87;4.40;;;;;;;20.66;55.74;99513.38;5081201;28;20479;-60
2022/06/24 00:38:30;;;;;;;4.53;4.13;;;;;;;20.70;55.42;99508.34;5081667;28;20527;-60
2022/06/24 00:40:59;;;;;;;5.70;4.83;;;;;;;20.71;54.86;99506.44;5082329;28;20475;-60
2022/06/24 00:43:27;;;;;;;4.90;4.17;;;;;;;20.66;55.62;99507.97;5082335;28;20499;-60
2022/06/24 00:46:01;;;;;;;5.43;4.90;;;;;;;20.72;55.90;99502.69;5080507;28;20482;-60
2022/06/24 00:48:30;;;;;;;5.03;4.53;;;;;;;20.75;56.25;99496.81;5082340;28;20448;-60
2022/06/24 00:50:57;;;;;;;4.70;4.30;;;;;;;20.76;55.80;99503.88;5082006;28;20483;-60
2022/06/24 00:53:24;;;;;;;5.13;4.73;;;;;;;20.78;55.71;99497.19;5081965;28;20452;-60
2022/06/24 00:55:51;;;;;;;4.77;4.37;;;;;;;20.81;55.71;99493.16;5081722;28;20464;-61
2022/06/24 00:58:18;;;;;;;5.00;4.50;;;;;;;20.85;55.72;99487.06;5082578;28;20482;-60
2022/06/24 01:00:46;;;;;;;6.10;4.97;;;;;;;20.89;55.71;99490.16;5081366;28;20475;-61
2022/06/24 01:03:15;;;;;;;5.43;4.37;;;;;;;20.91;56.18;99488.03;5082617;28;20494;-61
2022/06/24 01:05:43;;;;;;;6.80;4.70;;;;;;;20.93;56.56;99479.66;5081364;28;20482;-59
2022/06/24 01:08:10;;;;;;;4.77;4.37;;;;;;;20.96;56.72;99477.31;5081810;28;20524;-60
2022/06/24 01:10:38;;;;;;;5.50;5.00;;;;;;;20.94;55.88;99473.19;5081795;28;20552;-60
2022/06/24 01:13:08;;;;;;;5.30;4.90;;;;;;;20.93;55.90;99475.03;5082443;28;20462;-60
2022/06/24 01:15:34;;;;;;;6.70;5.17;;;;;;;20.93;56.05;99461.47;5080720;28;21074;-59
2022/06/24 01:18:01;;;;;;;4.60;4.20;;;;;;;20.94;55.63;99473.19;5082060;28;20443;-59
2022/06/24 01:20:29;;;;;;;5.13;4.00;;;;;;;20.90;55.60;99455.66;5081401;28;20464;-60
2022/06/24 01:22:57;;;;;;;6.27;3.77;;;;;;;20.87;55.15;99456.94;5081387;28;20952;-59
2022/06/24 01:25:24;;;;;;;7.23;4.20;;;;;;;20.85;55.17;99450.91;5081048;28;20479;-60
2022/06/24 01:27:51;;;;;;;4.20;3.80;;;;;;;20.80;55.35;99454.31;5082044;28;20448;-60
2022/06/24 01:30:17;;;;;;;4.77;4.10;;;;;;;20.75;55.79;99454.16;5081227;28;20440;-60
2022/06/24 01:32:45;;;;;;;6.17;3.83;;;;;;;20.71;55.30;99446.69;5081564;28;20526;-60
2022/06/24 01:35:11;;;;;;;7.33;4.27;;;;;;;20.65;54.31;99446.53;5094363;28;20502;-61
2022/06/24 01:37:38;;;;;;;6.50;3.97;;;;;;;20.60;52.71;99440.91;5100138;28;20480;-61
2022/06/24 01:40:08;;;;;;;4.00;3.63;;;;;;;20.57;52.44;99443.25;5101715;28;20439;-60
2022/06/24 01:42:35;;;;;;;3.83;3.53;;;;;;;20.55;51.93;99442.66;5091389;28;20463;-60
2022/06/24 01:45:02;;;;;;;4.20;3.83;;;;;;;20.62;51.86;99438.00;5081106;28;20475;-60
2022/06/24 01:47:29;;;;;;;4.70;3.77;;;;;;;20.63;53.35;99429.63;5099957;28;20955;-60
2022/06/24 01:49:55;;;;;;;4.93;3.80;;;;;;;20.60;53.61;99429.22;5101452;28;20511;-61
2022/06/24 01:52:22;;;;;;;6.50;4.17;;;;;;;20.72;52.89;99416.56;5091506;28;20471;-60
2022/06/24 01:54:49;;;;;;;4.97;4.40;;;;;;;20.64;52.56;99425.03;5081651;28;20522;-60
2022/06/24 01:57:17;;;;;;;4.57;4.17;;;;;;;20.69;50.58;99417.03;5098897;28;20478;-60
2022/06/24 01:59:43;;;;;;;4.70;3.50;;;;;;;20.82;48.85;99418.78;5101315;28;20474;-60
2022/06/24 02:02:10;;;;;;;4.47;3.90;;;;;;;20.93;48.14;99407.13;5098295;28;20911;-60
2022/06/24 02:04:37;;;;;;;4.03;3.63;;;;;;;20.99;47.40;99406.22;5081267;28;20507;-60
2022/06/24 02:07:04;;;;;;;4.40;3.53;;;;;;;21.03;47.31;99401.97;5097886;27;20478;-60
2022/06/24 02:13:26;;;;;;;5.23;4.17;;;;;;;21.17;46.49;99402.59;5099626;28;20451;-60
2022/06/24 02:15:03;;;;;;;4.43;4.03;;;;;;;21.19;48.38;99383.34;5093773;28;20445;-61
2022/06/24 02:17:30;;;;;;;4.63;3.50;;;;;;;21.24;45.82;99383.50;5099943;28;20471;-61
2022/06/24 02:19:57;;;;;;;4.60;4.20;;;;;;;21.31;46.41;99377.97;5101246;28;20455;-60
2022/06/24 02:22:23;;;;;;;4.30;3.93;;;;;;;21.27;48.82;99383.03;5088511;28;20541;-60
2022/06/24 02:24:50;;;;;;;4.33;3.93;;;;;;;21.08;48.17;99378.72;5096640;28;20471;-59
2022/06/24 02:27:16;;;;;;;5.40;3.67;;;;;;;21.04;49.85;99378.34;5099098;28;20490;-60
2022/06/24 02:29:45;;;;;;;4.23;3.83;;;;;;;20.95;47.97;99382.44;5100575;28;20487;-60
2022/06/24 02:32:12;;;;;;;5.87;3.63;;;;;;;21.08;46.91;99382.25;5099804;28;20483;-59
2022/06/24 02:34:39;;;;;;;4.30;3.90;;;;;;;21.13;46.95;99390.56;5084689;28;20479;-59
2022/06/24 02:37:07;;;;;;;13.00;4.83;;;;;;;21.01;53.45;99398.66;5084984;27;20478;-65
2022/06/24 02:39:33;;;;;;;8.07;4.90;;;;;;;19.89;60.14;99418.69;5080372;28;20464;-62
2022/06/24 02:42:00;;;;;;;6.60;5.03;;;;;;;19.55;63.48;99414.53;5084262;28;20476;-61
2022/06/24 02:44:27;;;;;;;6.83;5.17;;;;;;;18.91;70.28;99444.28;5080149;28;20468;-61
2022/06/24 02:46:55;;;;;;;6.63;5.83;;;;;;;18.86;68.75;99444.09;5093279;28;20575;-61
2022/06/24 02:49:21;;;;;;;11.20;6.47;;;;;;;18.54;75.84;99443.97;5100201;28;20475;-61
2022/06/24 02:51:48;;;;;;;8.20;7.47;;;;;;;18.28;79.07;99447.56;5084921;28;20495;-61
2022/06/24 02:54:15;;;;;;;11.60;7.90;;;;;;;18.44;81.09;99435.47;5080356;28;20428;-61
2022/06/24 02:56:41;;;;;;;9.30;8.33;;;;;;;18.36;81.94;99438.38;5091901;28;20532;-61
2022/06/24 02:59:08;;;;;;;8.97;8.17;;;;;;;18.48;81.81;99441.28;5100351;28;20439;-61
2022/06/24 03:01:35;;;;;;;9.30;8.30;;;;;;;18.52;80.93;99445.22;5099935;28;20487;-61
2022/06/24 03:04:03;;;;;;;10.20;8.40;;;;;;;18.44;80.18;99444.41;5100472;28;20528;-61
2022/06/24 03:06:30;;;;;;;14.03;9.20;;;;;;;18.44;81.23;99452.50;5096866;28;20476;-61
2022/06/24 03:08:56;;;;;;;11.40;8.80;;;;;;;18.42;81.27;99443.78;5080391;28;20515;-62
2022/06/24 03:11:23;;;;;;;8.83;7.30;;;;;;;18.68;71.51;99436.63;5083396;27;20525;-61
2022/06/24 03:13:50;;;;;;;8.20;7.40;;;;;;;18.70;74.16;99445.38;5080032;28;20454;-61
2022/06/24 03:16:17;;;;;;;7.83;7.03;;;;;;;18.67;73.13;99453.91;5082985;27;20499;-61
2022/06/24 03:18:43;;;;;;;5.93;5.33;;;;;;;18.97;65.35;99445.28;5081140;28;20507;-62
2022/06/24 03:21:11;;;;;;;11.30;7.27;;;;;;;19.00;73.94;99440.28;5088440;28;20467;-61
2022/06/24 03:23:38;;;;;;;9.20;6.87;;;;;;;19.12;70.45;99442.31;5098959;28;20517;-61
2022/06/24 03:26:05;;;;;;;5.40;4.90;;;;;;;19.62;65.22;99447.84;5099503;28;20497;-61
2022/06/24 03:28:31;;;;;;;6.67;6.07;;;;;;;19.41;73.21;99448.19;5100006;28;20458;-62
2022/06/24 03:30:58;;;;;;;7.07;6.43;;;;;;;19.39;74.91;99453.84;5099424;28;20471;-62
2022/06/24 03:33:25;;;;;;;8.90;7.93;;;;;;;19.33;73.16;99454.69;5099902;28;20487;-61
2022/06/24 03:35:51;;;;;;;7.40;6.70;;;;;;;19.37;75.03;99454.06;5096168;28;20594;-62
2022/06/24 03:38:19;;;;;;;6.63;5.90;;;;;;;19.32;72.35;99458.44;5080808;28;20459;-61
2022/06/24 03:40:46;;;;;;;7.83;7.13;;;;;;;19.37;76.03;99450.50;5084497;28;20474;-62
2022/06/24 03:43:12;;;;;;;7.57;6.80;;;;;;;19.60;74.62;99457.22;5100132;28;20447;-62
2022/06/24 03:45:39;;;;;;;8.17;6.97;;;;;;;20.43;68.72;99450.72;5098044;28;20474;-61
2022/06/24 03:48:06;;;;;;;8.03;7.33;;;;;;;21.12;68.90;99459.53;5098997;28;20451;-61
2022/06/24 03:50:33;;;;;;;13.33;7.50;;;;;;;22.11;65.76;99472.75;5098907;28;20471;-61
2022/06/24 03:53:00;;;;;;;7.70;6.97;;;;;;;22.41;65.41;99487.34;5086928;28;20495;-61
2022/06/24 03:55:28;;;;;;;7.67;7.07;;;;;;;23.07;63.94;99499.75;5097659;28;20455;-61
2022/06/24 03:57:54;;;;;;;10.30;6.67;;;;;;;23.49;62.30;99485.84;5079698;28;20487;-62
2022/06/24 04:00:21;;;;;;;6.80;5.97;;;;;;;22.96;63.08;99448.75;5083759;27;20442;-63
2022/06/24 04:02:48;;;;;;;7.80;6.93;;;;;;;22.73;64.32;99436.84;5099433;28;20504;-62
2022/06/24 04:05:15;;;;;;;7.80;7.10;;;;;;;22.84;64.93;99446.06;5098385;27;20466;-62
2022/06/24 04:07:42;;;;;;;8.10;7.10;;;;;;;21.97;65.94;99444.91;5097177;28;20481;-62
2022/06/24 04:10:08;;;;;;;7.33;6.33;;;;;;;21.57;69.50;99448.28;5096016;27;20439;-62
2022/06/24 04:12:36;;;;;;;11.43;7.80;;;;;;;20.83;73.47;99458.44;5092941;28;20971;-61
2022/06/24 04:15:17;;;;;;;8.47;7.67;;;;;;;20.62;75.61;99447.00;5092615;28;20861;-61
2022/06/24 04:17:45;;;;;;;10.33;7.10;;;;;;;20.84;73.92;99444.63;5095649;28;20465;-62
2022/06/24 04:20:12;;;;;;;11.17;8.50;;;;;;;20.86;76.03;99438.97;5073001;28;20458;-61
2022/06/24 04:22:39;;;;;;;7.17;6.57;;;;;;;20.83;72.00;99439.44;5103141;28;20473;-61
2022/06/24 04:25:07;;;;;;;6.20;5.70;;;;;;;22.76;65.53;99446.47;5100967;28;20493;-61
2022/06/24 04:27:33;;;;;;;8.20;5.67;;;;;;;22.66;67.10;99438.06;5100302;28;20492;-61
2022/06/24 04:30:02;;;;;;;7.07;5.83;;;;;;;23.15;65.16;99445.91;5102330;28;20999;-62
2022/06/24 04:32:29;;;;;;;7.60;4.70;;;;;;;24.72;58.57;99437.00;5099881;28;20479;-62
2022/06/24 04:34:56;;;;;;;5.27;4.37;;;;;;;25.66;55.92;99438.63;5099343;28;20471;-62
2022/06/24 04:37:22;;;;;;;4.83;4.43;;;;;;;26.55;53.56;99433.50;5100984;28;20536;-59
2022/06/24 04:39:49;;;;;;;6.77;4.70;;;;;;;27.01;52.70;99433.75;5101679;28;20470;-61
2022/06/24 04:42:16;;;;;;;8.73;4.10;;;;;;;27.84;48.64;99433.88;5100509;28;20946;-60
2022/06/24 04:44:43;;;;;;;9.17;4.30;;;;;;;28.21;47.37;99430.88;5091672;28;20506;-61
2022/06/24 04:47:11;;;;;;;4.67;3.60;;;;;;;28.11;46.56;99434.47;5094318;28;20476;-61
2022/06/24 04:49:38;;;;;;;6.97;3.93;;;;;;;27.79;45.82;99434.72;5082287;28;20490;-62
2022/06/24 04:52:05;;;;;;;5.50;3.60;;;;;;;27.59;46.08;99438.28;5097361;28;20475;-61
2022/06/24 04:54:32;;;;;;;5.83;3.83;;;;;;;27.79;45.57;99441.03;5102466;28;20438;-62
2022/06/24 04:56:59;;;;;;;5.43;4.30;;;;;;;28.38;46.47;99446.22;5100483;28;20499;-62
2022/06/24 04:59:26;;;;;;;10.37;3.83;;;;;;;29.09;45.49;99437.72;5102330;28;20454;-62
2022/06/24 05:01:52;;;;;;;4.70;3.33;;;;;;;30.30;40.47;99441.00;5096809;28;21314;-61
2022/06/24 05:04:20;;;;;;;5.47;3.37;;;;;;;29.94;45.10;99446.84;5082054;28;20480;-61
2022/06/24 05:06:49;;;;;;;4.60;3.47;;;;;;;29.88;45.38;99437.00;5089351;28;20476;-61
2022/06/24 05:09:16;;;;;;;6.17;3.30;;;;;;;30.63;40.00;99432.13;5086954;28;20456;-62
2022/06/24 05:11:42;;;;;;;8.00;3.50;;;;;;;31.86;38.30;99422.94;5094439;28;20482;-63
2022/06/24 05:14:09;;;;;;;4.87;3.10;;;;;;;30.03;41.85;99439.63;5101505;28;20798;-62
2022/06/24 05:16:36;;;;;;;4.20;2.97;;;;;;;31.24;38.48;99436.06;5088792;28;20511;-60
2022/06/24 05:19:02;;;;;;;6.63;3.10;;;;;;;31.25;39.71;99440.44;5081499;28;20490;-61
2022/06/24 05:21:31;;;;;;;5.40;2.83;;;;;;;31.58;38.58;99435.84;5092101;27;20487;-62
2022/06/24 05:23:58;;;;;;;5.10;3.73;;;;;;;30.82;39.08;99446.78;5083668;28;20468;-62
2022/06/24 05:26:24;;;;;;;5.07;2.90;;;;;;;28.43;44.14;99444.28;5091679;28;20532;-62
2022/06/24 05:28:52;;;;;;;5.97;2.87;;;;;;;26.66;48.11;99448.97;5098322;28;20479;-61
2022/06/24 05:31:18;;;;;;;6.73;2.50;;;;;;;26.41;49.78;99454.25;5090427;28;20511;-61
2022/06/24 05:33:45;;;;;;;4.97;3.40;;;;;;;25.87;52.85;99456.03;5095162;28;20461;-62
2022/06/24 05:36:12;;;;;;;10.67;3.70;;;;;;;26.29;51.21;99458.00;5095140;27;20474;-62
2022/06/24 05:38:41;;;;;;;9.13;3.37;;;;;;;27.46;48.23;99445.13;5092575;28;20451;-62
2022/06/24 05:41:09;;;;;;;8.93;3.20;;;;;;;29.23;44.33;99453.66;5089750;28;20463;-62
2022/06/24 05:43:36;;;;;;;5.27;3.13;;;;;;;28.31;44.82;99452.00;5092020;28;20431;-62
2022/06/24 05:46:03;;;;;;;9.00;3.77;;;;;;;29.32;42.17;99456.63;5088004;28;20474;-62
2022/06/24 05:48:30;;;;;;;5.37;2.87;;;;;;;29.62;40.74;99445.41;5089343;28;20826;-62
2022/06/24 05:50:57;;;;;;;4.47;3.00;;;;;;;30.23;40.17;99449.59;5092098;28;20471;-62
2022/06/24 05:56:12;;;;;;;6.00;3.27;;;;;;;29.53;40.80;99449.06;5084811;28;20526;-62
2022/06/24 05:58:40;;;;;;;7.50;2.70;;;;;;;29.62;40.79;99453.69;5081226;28;20491;-63
2022/06/24 06:01:11;;;;;;;5.00;2.87;;;;;;;30.89;38.49;99458.28;5080665;28;20472;-63
2022/06/24 06:03:38;;;;;;;9.10;3.63;;;;;;;29.77;39.98;99449.19;5088495;28;20598;-62
2022/06/24 06:06:05;;;;;;;4.83;3.00;;;;;;;29.12;42.94;99441.84;5098938;28;20965;-63
2022/06/24 06:08:33;;;;;;;7.20;4.23;;;;;;;27.04;47.52;99451.56;5081541;28;20452;-62
2022/06/24 06:11:00;;;;;;;7.63;3.23;;;;;;;27.02;47.25;99446.34;5080083;28;20479;-62
2022/06/24 06:13:30;;;;;;;6.77;3.10;;;;;;;28.46;45.40;99457.47;5080999;28;20440;-63
2022/06/24 06:15:58;;;;;;;7.23;3.53;;;;;;;28.55;43.55;99458.56;5079832;28;20557;-62
2022/06/24 06:18:25;;;;;;;4.90;3.67;;;;;;;26.67;48.25;99467.03;5081060;28;20444;-62
2022/06/24 06:20:53;;;;;;;7.93;3.60;;;;;;;25.09;53.75;99471.91;5080223;28;20480;-63
2022/06/24 06:23:20;;;;;;;6.07;3.50;;;;;;;24.59;55.67;99490.13;5079910;28;20482;-63
2022/06/24 06:25:48;;;;;;;8.07;3.97;;;;;;;24.52;56.70;99490.28;5080265;28;20480;-62
2022/06/24 06:28:16;;;;;;;6.97;3.70;;;;;;;25.29;55.01;99458.50;5080705;28;20447;-62
2022/06/24 06:30:45;;;;;;;11.23;3.70;;;;;;;26.48;51.97;99446.63;5085527;27;20554;-63
2022/06/24 06:33:12;;;;;;;7.00;2.83;;;;;;;27.15;48.71;99435.97;5100243;28;20457;-63
2022/06/24 06:35:40;;;;;;;7.63;3.47;;;;;;;27.25;48.65;99441.47;5099469;27;20482;-66
2022/06/24 06:38:07;;;;;;;8.37;2.83;;;;;;;26.26;50.87;99447.56;5100646;28;20962;-63
2022/06/24 06:40:35;;;;;;;5.23;3.33;;;;;;;26.45;51.60;99452.63;5100009;28;20836;-65
2022/06/24 06:43:05;;;;;;;6.70;3.43;;;;;;;26.74;51.44;99458.59;5100651;28;20431;-63
2022/06/24 06:45:33;;;;;;;4.90;2.80;;;;;;;26.19;52.17;99457.13;5099061;28;20504;-63
2022/06/24 06:48:02;;;;;;;6.10;2.77;;;;;;;25.92;52.51;99458.81;5100220;28;20435;-63
2022/06/24 06:50:30;;;;;;;3.87;3.20;;;;;;;24.97;54.83;99450.97;5099933;28;20497;-63
2022/06/24 06:52:58;;;;;;;4.07;2.50;;;;;;;25.08;55.36;99454.66;5094390;28;20456;-63
2022/06/24 06:55:26;;;;;;;9.47;2.80;;;;;;;25.00;55.23;99452.41;5096756;28;20467;-63
2022/06/24 06:57:55;;;;;;;4.10;2.27;;;;;;;24.52;56.82;99462.94;5099673;28;20446;-63
2022/06/24 07:00:23;;;;;;;6.30;3.37;;;;;;;24.32;58.39;99470.84;5099148;28;20454;-63
2022/06/24 07:02:50;;;;;;;8.23;2.57;;;;;;;24.18;58.77;99463.00;5098825;28;20447;-63
2022/06/24 07:05:20;;;;;;;4.67;2.90;;;;;;;23.81;59.28;99462.66;5099218;27;20506;-63
2022/06/24 07:07:47;;;;;;;7.50;2.33;;;;;;;23.61;59.82;99472.13;5099022;28;20466;-63
2022/06/24 07:10:15;;;;;;;7.03;2.80;;;;;;;23.55;60.29;99467.66;5097881;27;20511;-63
2022/06/24 07:12:43;;;;;;;5.30;2.30;;;;;;;23.51;60.06;99458.31;5100029;28;20431;-63
2022/06/24 07:15:16;;;;;;;6.37;2.50;;;;;;;23.38;60.13;99431.31;5098936;28;20435;-63
2022/06/24 07:17:44;;;;;;;5.00;2.00;;;;;;;23.11;60.68;99446.38;5098487;28;20454;-63
2022/06/24 07:20:12;;;;;;;3.30;1.40;;;;;;;22.90;62.75;99457.91;5098732;27;20475;-63
2022/06/24 07:22:42;;;;;;;3.23;1.80;;;;;;;22.97;62.20;99464.06;5098280;28;20705;-63
2022/06/24 07:25:10;;;;;;;3.40;1.80;;;;;;;22.31;65.40;99466.19;5098765;28;20475;-62
2022/06/24 07:27:37;;;;;;;4.00;1.73;;;;;;;22.17;65.36;99454.66;5099644;28;20503;-62
2022/06/24 07:30:06;;;;;;;3.20;1.70;;;;;;;22.23;67.27;99452.88;5099548;28;20443;-62
2022/06/24 07:32:33;;;;;;;4.03;1.87;;;;;;;22.28;67.56;99433.97;5098217;28;20459;-62
2022/06/24 07:35:01;;;;;;;3.63;1.60;;;;;;;22.43;68.77;99423.41;5099144;28;21266;-62
2022/06/24 07:37:34;;;;;;;2.47;1.80;;;;;;;22.31;68.25;99417.97;5098593;28;20493;-62
2022/06/24 07:40:02;;;;;;;2.43;1.40;;;;;;;22.53;66.63;99415.47;5098829;28;20608;-63
2022/06/24 07:42:29;;;;;;;5.60;1.53;;;;;;;22.62;67.06;99420.53;5098971;28;20479;-63
2022/06/24 07:44:55;;;;;;;4.43;1.33;;;;;;;22.49;66.76;99421.63;5099405;28;20482;-63
2022/06/24 07:47:22;;;;;;;5.60;1.47;;;;;;;22.59;65.54;99419.13;5096798;28;20546;-62
2022/06/24 07:49:50;;;;;;;4.33;1.70;;;;;;;22.94;64.62;99426.38;5099517;28;20483;-62
2022/06/24 07:52:18;;;;;;;3.17;1.10;;;;;;;23.14;66.00;99431.44;5097544;27;20479;-63
2022/06/24 07:54:45;;;;;;;2.77;1.60;;;;;;;23.78;63.58;99423.03;5100026;28;20427;-63
2022/06/24 07:57:12;;;;;;;4.70;1.37;;;;;;;23.92;62.38;99426.25;5102619;28;20505;-63
2022/06/24 07:59:39;;;;;;;3.53;1.70;;;;;;;24.46;61.19;99419.41;5103402;28;20455;-64
2022/06/24 08:02:08;;;;;;;7.10;1.83;;;;;;;24.30;60.29;99434.75;5101965;28;20532;-63
2022/06/24 08:04:35;;;;;;;3.73;1.93;;;;;;;24.47;58.44;99424.63;5102992;28;20424;-62
2022/06/24 08:07:04;;;;;;;4.03;1.73;;;;;;;24.91;58.36;99426.56;5102087;27;20558;-63
2022/06/24 08:09:32;;;;;;;3.10;1.60;;;;;;;24.74;58.72;99427.47;5102487;28;20450;-63
2022/06/24 08:11:59;;;;;;;5.23;2.10;;;;;;;24.86;56.86;99427.34;5102900;27;20516;-63
2022/06/24 08:14:27;;;;;;;4.10;1.50;;;;;;;24.93;58.17;99429.88;5102898;28;20931;-61
2022/06/24 08:16:55;;;;;;;2.30;1.20;;;;;;;24.90;58.70;99436.69;5100868;27;21034;-63
2022/06/24 08:19:22;;;;;;;5.30;1.63;;;;;;;24.89;57.82;99437.75;5102949;28;20451;-64
2022/06/24 08:21:49;;;;;;;1.93;1.40;;;;;;;25.12;58.04;99433.09;5102002;27;20477;-62
2022/06/24 08:24:15;;;;;;;6.30;1.73;;;;;;;25.31;56.62;99431.72;5102078;28;20434;-63
2022/06/24 08:26:42;;;;;;;5.67;1.40;;;;;;;25.36;56.72;99426.28;5101985;27;20474;-61
2022/06/24 08:29:11;;;;;;;4.53;2.00;;;;;;;25.73;55.33;99424.72;5101425;28;20450;-63
2022/06/24 08:31:39;;;;;;;4.23;1.63;;;;;;;25.77;54.01;99425.81;5100098;28;20557;-63
2022/06/24 08:34:06;;;;;;;3.43;1.30;;;;;;;25.62;55.05;99431.16;5101966;28;20504;-63
2022/06/24 08:36:33;;;;;;;2.73;1.60;;;;;;;25.24;56.52;99422.84;5101240;27;21055;-63
2022/06/24 08:38:59;;;;;;;3.10;1.37;;;;;;;26.63;52.67;99421.22;5101806;28;20455;-64
2022/06/24 08:41:27;;;;;;;5.73;1.40;;;;;;;26.74;52.10;99422.94;5101989;27;20486;-66
2022/06/24 08:43:55;;;;;;;2.60;1.53;;;;;;;27.84;50.13;99420.16;5101641;28;20445;-63
2022/06/24 08:46:23;;;;;;;3.70;1.60;;;;;;;28.10;48.41;99415.50;5100884;27;20559;-63
2022/06/24 08:48:51;;;;;;;4.83;1.47;;;;;;;26.94;50.06;99411.19;5102344;28;20454;-63
2022/06/24 08:51:18;;;;;;;2.73;1.13;;;;;;;26.78;51.33;99409.50;5101892;27;20500;-64
2022/06/24 08:53:46;;;;;;;3.60;1.60;;;;;;;26.31;51.58;99409.25;5101083;28;20454;-63
2022/06/24 08:56:13;;;;;;;3.73;1.00;;;;;;;27.35;50.57;99408.59;5101764;27;21094;-63
2022/06/24 08:58:41;;;;;;;2.90;1.60;;;;;;;27.60;48.51;99398.72;5102107;28;20454;-63
2022/06/24 09:01:08;;;;;;;4.00;2.00;;;;;;;27.04;49.62;99400.25;5100641;27;20574;-63
2022/06/24 09:03:36;;;;;;;3.33;1.40;;;;;;;27.47;49.87;99400.09;5101427;28;20441;-65
2022/06/24 09:06:14;;;;;;;5.63;1.87;;;;;;;26.33;52.90;99403.50;5100949;27;20475;-64
2022/06/24 09:08:42;;;;;;;7.00;1.70;;;;;;;26.46;52.14;99413.19;5100484;28;20454;-63
2022/06/24 09:11:11;;;;;;;4.07;1.60;;;;;;;25.73;52.95;99417.31;5101568;27;20470;-63
2022/06/24 09:13:47;;;;;;;4.17;2.00;;;;;;;25.21;55.13;99409.69;5101977;28;20431;-62
2022/06/24 09:16:17;;;;;;;4.70;1.60;;;;;;;24.84;56.47;99401.34;5099439;27;20478;-62
2022/06/24 09:18:52;;;;;;;3.70;2.37;;;;;;;24.97;56.71;99409.16;5101498;28;20794;-62
2022/06/24 09:21:28;;;;;;;3.63;1.70;;;;;;;24.98;56.99;99413.53;5101195;27;20541;-62
2022/06/24 09:23:57;;;;;;;3.03;2.17;;;;;;;25.15;56.78;99414.28;5100586;28;20446;-62
2022/06/24 09:26:33;;;;;;;4.93;1.70;;;;;;;24.80;58.04;99409.22;5100932;27;20475;-63
2022/06/24 09:29:01;;;;;;;3.00;2.00;;;;;;;24.34;58.78;99417.63;5100110;28;20453;-62
2022/06/24 09:31:31;;;;;;;3.77;1.70;;;;;;;24.61;57.02;99425.94;5100217;28;20516;-62
2022/06/24 09:34:11;;;;;;;2.10;1.40;;;;;;;24.83;56.59;99418.84;5101168;28;20479;-61
2022/06/24 09:36:40;;;;;;;4.30;1.60;;;;;;;24.76;56.39;99419.03;5100250;28;20475;-61
2022/06/24 09:39:11;;;;;;;10.40;2.03;;;;;;;25.14;54.23;99420.00;5100066;28;20475;-61
2022/06/24 09:41:45;;;;;;;7.33;1.87;;;;;;;25.76;53.91;99421.44;5098095;28;20855;-61
2022/06/24 09:44:12;;;;;;;5.77;2.00;;;;;;;25.64;53.35;99410.69;5095087;28;20445;-61
2022/06/24 09:46:41;;;;;;;2.80;1.50;;;;;;;26.09;53.24;99419.53;5086171;28;20539;-61
2022/06/24 09:49:11;;;;;;;2.80;1.80;;;;;;;26.60;51.90;99408.84;5088684;28;20554;-61
2022/06/24 09:51:44;;;;;;;6.03;2.10;;;;;;;26.44;50.99;99409.84;5091966;27;20472;-61
2022/06/24 09:54:13;;;;;;;3.63;2.13;;;;;;;25.28;55.06;99417.72;5101349;28;20423;-61
2022/06/24 09:56:42;;;;;;;3.70;1.87;;;;;;;25.08;55.75;99410.91;5100273;28;20478;-61
2022/06/24 10:01:55;;;;;;;3.90;2.00;;;;;;;24.31;57.48;99407.19;5079742;28;20544;-59
2022/06/24 10:04:24;;;;;;;4.40;1.90;;;;;;;24.84;57.09;99409.53;5080975;28;20475;-60
2022/06/24 10:06:58;;;;;;;6.77;2.40;;;;;;;25.15;56.70;99418.91;5098908;28;20483;-64
2022/06/24 10:09:29;;;;;;;4.80;2.03;;;;;;;24.92;56.10;99422.75;5100306;28;20450;-59
2022/06/24 10:11:58;;;;;;;4.37;1.77;;;;;;;24.75;57.08;99425.56;5100377;28;20479;-60
2022/06/24 10:14:28;;;;;;;6.97;1.90;;;;;;;24.66;57.88;99425.19;5099976;28;20431;-60
2022/06/24 10:16:57;;;;;;;3.93;2.33;;;;;;;24.93;55.37;99418.94;5099007;28;20486;-60
2022/06/24 10:19:26;;;;;;;3.30;1.80;;;;;;;25.68;53.44;99436.44;5100116;28;20461;-60
2022/06/24 10:21:56;;;;;;;2.90;1.60;;;;;;;26.37;50.24;99439.41;5099193;28;20479;-60
2022/06/24 10:24:24;;;;;;;4.73;1.93;;;;;;;26.95;48.99;99428.50;5100504;28;20428;-60
2022/06/24 10:26:55;;;;;;;5.50;2.17;;;;;;;27.04;47.99;99410.41;5099326;28;20474;-60
2022/06/24 10:29:31;;;;;;;2.67;1.83;;;;;;;27.32;48.05;99416.56;5099073;28;20457;-60
2022/06/24 10:32:08;;;;;;;2.70;1.60;;;;;;;26.97;47.44;99407.09;5099599;28;20477;-61
2022/06/24 10:34:38;;;;;;;4.87;1.60;;;;;;;27.12;47.62;99414.56;5099959;28;21136;-60
2022/06/24 10:37:25;;;;;;;6.00;1.83;;;;;;;27.59;46.73;99410.81;5098010;28;20471;-60
2022/06/24 10:39:55;;;;;;;3.03;1.60;;;;;;;28.01;46.11;99419.91;5092112;28;20435;-61
2022/06/24 10:42:24;;;;;;;3.50;1.70;;;;;;;27.21;48.41;99413.75;5096107;28;20479;-62
2022/06/24 10:44:55;;;;;;;2.57;1.80;;;;;;;26.60;48.45;99408.84;5090057;28;20454;-62
2022/06/24 10:47:43;;;;;;;3.40;1.70;;;;;;;27.76;47.28;99403.13;5088518;28;20478;-63
2022/06/24 10:50:18;;;;;;;3.50;2.20;;;;;;;27.54;46.63;99397.91;5078891;28;20499;-63
2022/06/24 10:53:08;;;;;;;4.83;1.93;;;;;;;27.79;46.88;99401.75;5078141;28;20451;-62
2022/06/24 10:55:53;;;;;;;5.80;1.97;;;;;;;28.83;44.85;99409.50;5078854;28;20460;-62
2022/06/24 10:58:21;;;;;;;5.07;1.83;;;;;;;28.63;44.51;99401.38;5078643;28;20440;-62
2022/06/24 11:00:53;;;;;;;4.30;1.60;;;;;;;29.59;42.71;99396.41;5078852;28;20471;-62
2022/06/24 11:03:38;;;;;;;6.10;2.10;;;;;;;29.26;43.18;99389.78;5079457;28;20436;-60
2022/06/24 11:06:12;;;;;;;4.97;2.00;;;;;;;30.02;40.90;99391.09;5076852;28;20751;-62
2022/06/24 11:08:43;;;;;;;2.20;1.27;;;;;;;31.35;41.28;99371.25;5078876;28;20965;-63
2022/06/24 11:11:24;;;;;;;2.40;1.43;;;;;;;31.43;39.24;99370.56;5089235;27;20471;-61
2022/06/24 11:14:01;;;;;;;3.00;1.80;;;;;;;30.99;38.15;99374.56;5098131;28;20475;-63
2022/06/24 11:16:30;;;;;;;4.20;2.00;;;;;;;31.07;38.75;99371.13;5098166;27;20542;-63
2022/06/24 11:18:58;;;;;;;3.40;1.23;;;;;;;30.67;40.04;99378.81;5099400;28;20435;-63
2022/06/24 11:21:27;;;;;;;4.13;1.80;;;;;;;30.63;38.54;99374.19;5098204;27;20482;-63
2022/06/24 11:24:02;;;;;;;3.77;1.80;;;;;;;29.48;41.07;99386.59;5099243;28;20505;-62
2022/06/24 11:26:30;;;;;;;4.03;1.80;;;;;;;28.82;40.80;99368.53;5098324;27;20482;-63
2022/06/24 11:29:00;;;;;;;2.40;1.80;;;;;;;28.59;42.54;99372.78;5097985;28;20463;-63
2022/06/24 11:31:29;;;;;;;2.17;1.57;;;;;;;28.70;42.87;99374.38;5096557;27;20509;-63
2022/06/24 11:34:10;;;;;;;5.60;2.53;;;;;;;29.32;41.79;99371.28;5082764;28;20940;-63
2022/06/24 11:36:40;;;;;;;2.70;1.80;;;;;;;29.01;42.48;99374.19;5082360;28;20467;-62
2022/06/24 11:39:14;;;;;;;3.47;1.73;;;;;;;28.30;42.24;99367.91;5082762;28;20447;-62
2022/06/24 11:41:48;;;;;;;2.63;1.70;;;;;;;28.18;43.67;99365.47;5091179;28;20480;-62
2022/06/24 11:44:16;;;;;;;2.60;2.20;;;;;;;28.65;42.29;99361.47;5102391;28;20597;-63
2022/06/24 11:46:50;;;;;;;3.87;1.70;;;;;;;28.29;42.77;99353.31;5101403;28;20508;-63
2022/06/24 11:49:21;;;;;;;2.50;1.60;;;;;;;28.54;41.56;99355.19;5102705;28;20450;-63